LS Concorde — ZDHJ7 — position and weather

sailwx.info

Track history (hours):
 
Tides and Currents Weather Stations Pressure Air Temp Water Temp Dewpoint Dewpoint Depression Visibility Wind Speed Wind Dir Waves Ship Positions

LS Concorde

Last reported at 2015-Mar-31 20:14 UTC. Time now 2015-Mar-31 20:48 UTC.
Position N 52°10' E 003°42'.

Length 99 m; draft 5.3 m.

Type: Tanker. MMSI: 236329000.

Date/timePositionNaut miles runAvg speedWind from/ knotsBaromVisibWave heightAir tempDewpointWater temp
2015-Mar-31 20:14N 52°10' E 003°42'0 0.1
2015-Mar-31 19:17N 52°10' E 003°42'0 0.0
2015-Mar-31 14:32N 52°10' E 003°42'0 0.0
2015-Mar-31 13:17N 52°10' E 003°42'1 0.2
2015-Mar-31 10:30N 52°10' E 003°43'1 1.1
2015-Mar-31 09:17N 52°10' E 003°45'0 0.2
2015-Mar-31 08:23N 52°10' E 003°44'0 0.1
2015-Mar-31 07:08N 52°10' E 003°44'0 0.0
2015-Mar-31 06:32N 52°10' E 003°44'0 0.0
2015-Mar-31 03:17N 52°10' E 003°44'0 0.1
2015-Mar-31 02:32N 52°10' E 003°44'0 0.1
2015-Mar-31 00:32N 52°10' E 003°44'0 0.0
2015-Mar-30 22:29N 52°10' E 003°44'0 0.0
2015-Mar-30 20:11N 52°10' E 003°44'0 0.1
2015-Mar-30 18:05N 52°10' E 003°44'0 0.0
2015-Mar-30 17:29N 52°10' E 003°44'0 0.1
2015-Mar-30 16:17N 52°10' E 003°44'0 0.0
2015-Mar-30 15:26N 52°10' E 003°44'0 0.0
2015-Mar-30 14:05N 52°10' E 003°44'0 0.0
2015-Mar-30 10:20N 52°10' E 003°44'0 0.2
2015-Mar-30 09:30N 52°10' E 003°44'1 0.8
2015-Mar-30 08:33N 52°10' E 003°45'0 0.1
2015-Mar-30 07:09N 52°10' E 003°45'0 0.0
2015-Mar-30 05:18N 52°10' E 003°44'0 0.0
2015-Mar-30 04:27N 52°10' E 003°44'0 0.0
2015-Mar-30 03:24N 52°10' E 003°44'0 0.0
2015-Mar-30 02:30N 52°10' E 003°44'0 0.0
2015-Mar-30 01:15N 52°10' E 003°44'0 0.0
2015-Mar-30 00:33N 52°10' E 003°44'0 0.0
2015-Mar-29 23:30N 52°10' E 003°44'0 0.0
2015-Mar-29 22:33N 52°10' E 003°44'0 0.0
2015-Mar-29 20:21N 52°10' E 003°44'0 0.0
2015-Mar-29 19:12N 52°10' E 003°44'0 0.0
2015-Mar-29 18:24N 52°10' E 003°44'0 0.0
2015-Mar-29 17:24N 52°10' E 003°44'0 0.0
2015-Mar-29 16:27N 52°10' E 003°44'2 1.7
2015-Mar-29 15:33N 52°09' E 003°46'9 8.6
2015-Mar-29 14:33N 52°03' E 003°56'9 8.7
2015-Mar-29 13:33N 51°58' E 004°07'4 2.4
2015-Mar-29 12:03N 51°56' E 004°12'0 0.0
2015-Mar-28 16:34N 51°56' E 004°12'4 4.0
2015-Mar-28 15:33N 51°58' E 004°07'1111.0
2015-Mar-28 14:33N 51°60' E 003°49'5 5.5
2015-Mar-28 13:33N 51°56' E 003°43'1 0.3
2015-Mar-28 11:28N 51°55' E 003°44'0 0.0
2015-Mar-28 10:23N 51°55' E 003°44'0 0.0
2015-Mar-28 09:28N 51°55' E 003°44'0 0.0
2015-Mar-28 08:16N 51°55' E 003°44'0 0.1
2015-Mar-28 07:32N 51°55' E 003°44'10 9.6
2015-Mar-28 06:28N 51°55' E 003°27'3710.8
2015-Mar-28 03:05N 51°55' E 002°27'911.9
2015-Mar-28 02:18N 52°03' E 002°22'1012.4
2015-Mar-28 01:30N 52°13' E 002°18'1212.5
2015-Mar-28 00:33N 52°24' E 002°12'1212.1
2015-Mar-27 23:33N 52°35' E 002°04'1211.7
2015-Mar-27 22:33N 52°45' E 001°54'1111.0
2015-Mar-27 21:34N 52°53' E 001°41'9 9.3
2015-Mar-27 20:33N 52°59' E 001°29'8 8.0
2015-Mar-27 19:33N 53°06' E 001°22'1010.2
2015-Mar-27 18:33N 53°15' E 001°13'2610.3
2015-Mar-27 16:05N 53°37' E 000°53'610.6
2015-Mar-27 15:30N 53°42' E 000°48'1010.8
2015-Mar-27 14:33N 53°51' E 000°38'1111.4
2015-Mar-27 13:33N 53°59' E 000°24'1211.7
2015-Mar-27 12:33N 54°08' E 000°11'1212.1
2015-Mar-27 11:33N 54°16' W 000°03'1312.6
2015-Mar-27 10:33N 54°25' W 000°18'1712.8
2015-Mar-27 09:14N 54°36' W 000°41'912.9
2015-Mar-27 08:33N 54°39' W 000°55'9 8.9
2015-Mar-27 07:30N 54°36' W 001°10'4 0.3
2015-Mar-26 20:07N 54°39' W 001°08'2 3.7
2015-Mar-26 19:31N 54°40' W 001°04'6 6.4
2015-Mar-26 18:33N 54°39' W 000°53'14 9.5
2015-Mar-26 17:04N 54°33' W 000°31'510.4
2015-Mar-26 16:33N 54°29' W 000°25'1211.6
2015-Mar-26 15:33N 54°21' W 000°11'1211.8
2015-Mar-26 14:33N 54°12' E 000°03'1211.8
2015-Mar-26 13:33N 54°03' E 000°17'1412.0
2015-Mar-26 12:25N 53°54' E 000°33'1211.2
2015-Mar-26 11:20N 53°44' E 000°46'3611.6
2015-Mar-26 08:13N 53°13' E 001°16'913.1
2015-Mar-26 07:33N 53°05' E 001°23'1414.0
2015-Mar-26 06:34N 52°54' E 001°37'1514.9
2015-Mar-26 05:33N 52°44' E 001°56'1414.3
2015-Mar-26 04:33N 52°32' E 002°09'6210.1
2015-Mar-25 22:27N 51°31' E 002°16'910.2
2015-Mar-25 21:33N 51°23' E 002°10'1212.3
2015-Mar-25 20:33N 51°23' E 002°30'5 4.7
2015-Mar-25 19:32N 51°26' E 002°36'0 0.0
2015-Mar-25 18:34N 51°26' E 002°36'0 0.0
2015-Mar-25 17:34N 51°26' E 002°36'0 0.0
2015-Mar-25 16:33N 51°26' E 002°36'0 0.0
2015-Mar-25 15:32N 51°26' E 002°36'0 0.1
2015-Mar-25 14:32N 51°26' E 002°36'0 0.1
2015-Mar-25 13:33N 51°26' E 002°35'0 0.0
2015-Mar-25 12:33N 51°26' E 002°35'0 0.0
2015-Mar-25 11:32N 51°26' E 002°35'0 0.0
2015-Mar-25 10:33N 51°26' E 002°35'0 0.0
2015-Mar-25 09:33N 51°26' E 002°35'0 0.0
2015-Mar-25 08:33N 51°26' E 002°35'0 0.0
2015-Mar-25 07:33N 51°26' E 002°35'0 0.1
2015-Mar-25 06:33N 51°26' E 002°36'0 0.0
2015-Mar-25 05:33N 51°26' E 002°36'0 0.0
2015-Mar-25 04:28N 51°26' E 002°36'0 0.0
2015-Mar-25 03:32N 51°26' E 002°36'0 0.1
2015-Mar-25 02:32N 51°26' E 002°36'0 0.1
2015-Mar-25 01:32N 51°26' E 002°35'0 0.0
2015-Mar-25 00:32N 51°26' E 002°35'0 0.0
2015-Mar-24 23:32N 51°26' E 002°35'0 0.0
2015-Mar-24 22:33N 51°26' E 002°35'0 0.0
2015-Mar-24 21:34N 51°26' E 002°35'0 0.0
2015-Mar-24 20:33N 51°26' E 002°35'0 0.0
2015-Mar-24 19:33N 51°26' E 002°35'0 0.1
2015-Mar-24 18:34N 51°26' E 002°36'0 0.0
2015-Mar-24 17:33N 51°26' E 002°36'0 0.0
2015-Mar-24 16:32N 51°26' E 002°36'0 0.0
2015-Mar-24 15:32N 51°26' E 002°36'0 0.0
2015-Mar-24 14:29N 51°26' E 002°36'0 0.1
2015-Mar-24 13:33N 51°26' E 002°36'0 0.1
2015-Mar-24 12:33N 51°26' E 002°35'0 0.0
2015-Mar-24 11:32N 51°26' E 002°35'0 0.0
2015-Mar-24 10:32N 51°26' E 002°35'0 0.0
2015-Mar-24 09:31N 51°26' E 002°35'0 0.1
2015-Mar-24 08:33N 51°26' E 002°36'0 0.0
2015-Mar-24 07:33N 51°26' E 002°36'0 0.0
2015-Mar-24 06:33N 51°26' E 002°36'0 0.0
2015-Mar-24 05:30N 51°26' E 002°36'0 0.0
2015-Mar-24 04:33N 51°26' E 002°36'0 0.0
2015-Mar-24 03:33N 51°26' E 002°36'0 0.0
2015-Mar-24 02:33N 51°26' E 002°36'0 0.0
2015-Mar-24 01:28N 51°26' E 002°36'0 0.1
2015-Mar-24 00:33N 51°26' E 002°35'0 0.0
2015-Mar-23 23:30N 51°26' E 002°35'0 0.0
2015-Mar-23 22:33N 51°26' E 002°35'0 0.0
2015-Mar-23 21:33N 51°26' E 002°35'0 0.1
2015-Mar-23 20:33N 51°26' E 002°36'0 0.0
2015-Mar-23 19:32N 51°26' E 002°36'0 0.0
2015-Mar-23 18:34N 51°26' E 002°36'0 0.0
2015-Mar-23 17:33N 51°26' E 002°36'0 0.0
2015-Mar-23 16:33N 51°26' E 002°36'0 0.0
2015-Mar-23 15:33N 51°26' E 002°36'0 0.0
2015-Mar-23 14:33N 51°26' E 002°36'0 0.0
2015-Mar-23 13:16N 51°26' E 002°36'0 0.1
2015-Mar-23 12:32N 51°26' E 002°36'0 0.1
2015-Mar-23 11:33N 51°26' E 002°35'0 0.0
2015-Mar-23 10:32N 51°26' E 002°35'0 0.0
2015-Mar-23 09:33N 51°26' E 002°35'0 0.0
2015-Mar-23 08:31N 51°26' E 002°35'0 0.1
2015-Mar-23 07:32N 51°26' E 002°36'0 0.0
2015-Mar-23 06:31N 51°26' E 002°36'0 0.0
2015-Mar-23 05:30N 51°26' E 002°36'0 0.0
2015-Mar-23 04:30N 51°26' E 002°36'0 0.0
2015-Mar-23 03:30N 51°26' E 002°36'0 0.0
2015-Mar-23 02:28N 51°26' E 002°36'0 0.0
2015-Mar-23 01:34N 51°26' E 002°36'0 0.1
2015-Mar-23 00:30N 51°26' E 002°36'0 0.1
2015-Mar-22 23:33N 51°26' E 002°35'0 0.0
2015-Mar-22 22:33N 51°26' E 002°35'0 0.0
2015-Mar-22 21:33N 51°26' E 002°35'0 0.0
2015-Mar-22 20:34N 51°26' E 002°35'0 0.0
2015-Mar-22 17:31N 51°26' E 002°36'0 0.0
2015-Mar-22 12:18N 51°26' E 002°35'0 0.1
2015-Mar-22 11:34N 51°26' E 002°35'0 0.0
2015-Mar-22 10:32N 51°26' E 002°35'0 0.0
2015-Mar-22 09:33N 51°26' E 002°35'0 0.0
2015-Mar-22 08:33N 51°26' E 002°35'0 0.0
2015-Mar-22 07:33N 51°26' E 002°35'0 0.0
2015-Mar-22 06:24N 51°26' E 002°35'0 0.0
2015-Mar-22 05:33N 51°26' E 002°35'0 0.1
2015-Mar-22 04:32N 51°26' E 002°35'5 5.0
2015-Mar-22 03:32N 51°22' E 002°30'1312.1
2015-Mar-22 02:27N 51°15' E 002°13'1112.2
2015-Mar-22 01:33N 51°10' E 001°57'9 9.2
2015-Mar-22 00:34N 51°03' E 001°48'7 6.5
2015-Mar-21 23:29N 51°03' E 001°59'1110.3
2015-Mar-21 22:25N 51°04' E 002°17'3 3.3
2015-Mar-21 21:33N 51°03' E 002°21'  
Track history (hours):
 
Tides and Currents Weather Stations Pressure Air Temp Water Temp Dewpoint Dewpoint Depression Visibility Wind Speed Wind Dir Waves Ship Positions

LS Concorde

Last reported at 2015-Mar-31 20:14 UTC. Time now 2015-Mar-31 20:48 UTC.
Position N 52°10' E 003°42'.

Length 99 m; draft 5.3 m.

Type: Tanker. MMSI: 236329000.

Date/timePositionNaut miles runAvg speedWind from/ knotsBaromVisibWave heightAir tempDewpointWater temp
2015-Mar-31 20:14N 52°10' E 003°42'0 0.1
2015-Mar-31 19:17N 52°10' E 003°42'0 0.0
2015-Mar-31 14:32N 52°10' E 003°42'0 0.0
2015-Mar-31 13:17N 52°10' E 003°42'1 0.2
2015-Mar-31 10:30N 52°10' E 003°43'1 1.1
2015-Mar-31 09:17N 52°10' E 003°45'0 0.2
2015-Mar-31 08:23N 52°10' E 003°44'0 0.1
2015-Mar-31 07:08N 52°10' E 003°44'0 0.0
2015-Mar-31 06:32N 52°10' E 003°44'0 0.0
2015-Mar-31 03:17N 52°10' E 003°44'0 0.1
2015-Mar-31 02:32N 52°10' E 003°44'0 0.1
2015-Mar-31 00:32N 52°10' E 003°44'0 0.0
2015-Mar-30 22:29N 52°10' E 003°44'0 0.0
2015-Mar-30 20:11N 52°10' E 003°44'0 0.1
2015-Mar-30 18:05N 52°10' E 003°44'0 0.0
2015-Mar-30 17:29N 52°10' E 003°44'0 0.1
2015-Mar-30 16:17N 52°10' E 003°44'0 0.0
2015-Mar-30 15:26N 52°10' E 003°44'0 0.0
2015-Mar-30 14:05N 52°10' E 003°44'0 0.0
2015-Mar-30 10:20N 52°10' E 003°44'0 0.2
2015-Mar-30 09:30N 52°10' E 003°44'1 0.8
2015-Mar-30 08:33N 52°10' E 003°45'0 0.1
2015-Mar-30 07:09N 52°10' E 003°45'0 0.0
2015-Mar-30 05:18N 52°10' E 003°44'0 0.0
2015-Mar-30 04:27N 52°10' E 003°44'0 0.0
2015-Mar-30 03:24N 52°10' E 003°44'0 0.0
2015-Mar-30 02:30N 52°10' E 003°44'0 0.0
2015-Mar-30 01:15N 52°10' E 003°44'0 0.0
2015-Mar-30 00:33N 52°10' E 003°44'0 0.0
2015-Mar-29 23:30N 52°10' E 003°44'0 0.0
2015-Mar-29 22:33N 52°10' E 003°44'0 0.0
2015-Mar-29 20:21N 52°10' E 003°44'0 0.0
2015-Mar-29 19:12N 52°10' E 003°44'0 0.0
2015-Mar-29 18:24N 52°10' E 003°44'0 0.0
2015-Mar-29 17:24N 52°10' E 003°44'0 0.0
2015-Mar-29 16:27N 52°10' E 003°44'2 1.7
2015-Mar-29 15:33N 52°09' E 003°46'9 8.6
2015-Mar-29 14:33N 52°03' E 003°56'9 8.7
2015-Mar-29 13:33N 51°58' E 004°07'4 2.4
2015-Mar-29 12:03N 51°56' E 004°12'0 0.0
2015-Mar-28 16:34N 51°56' E 004°12'4 4.0
2015-Mar-28 15:33N 51°58' E 004°07'1111.0
2015-Mar-28 14:33N 51°60' E 003°49'5 5.5
2015-Mar-28 13:33N 51°56' E 003°43'1 0.3
2015-Mar-28 11:28N 51°55' E 003°44'0 0.0
2015-Mar-28 10:23N 51°55' E 003°44'0 0.0
2015-Mar-28 09:28N 51°55' E 003°44'0 0.0
2015-Mar-28 08:16N 51°55' E 003°44'0 0.1
2015-Mar-28 07:32N 51°55' E 003°44'10 9.6
2015-Mar-28 06:28N 51°55' E 003°27'3710.8
2015-Mar-28 03:05N 51°55' E 002°27'911.9
2015-Mar-28 02:18N 52°03' E 002°22'1012.4
2015-Mar-28 01:30N 52°13' E 002°18'1212.5
2015-Mar-28 00:33N 52°24' E 002°12'1212.1
2015-Mar-27 23:33N 52°35' E 002°04'1211.7
2015-Mar-27 22:33N 52°45' E 001°54'1111.0
2015-Mar-27 21:34N 52°53' E 001°41'9 9.3
2015-Mar-27 20:33N 52°59' E 001°29'8 8.0
2015-Mar-27 19:33N 53°06' E 001°22'1010.2
2015-Mar-27 18:33N 53°15' E 001°13'2610.3
2015-Mar-27 16:05N 53°37' E 000°53'610.6
2015-Mar-27 15:30N 53°42' E 000°48'1010.8
2015-Mar-27 14:33N 53°51' E 000°38'1111.4
2015-Mar-27 13:33N 53°59' E 000°24'1211.7
2015-Mar-27 12:33N 54°08' E 000°11'1212.1
2015-Mar-27 11:33N 54°16' W 000°03'1312.6
2015-Mar-27 10:33N 54°25' W 000°18'1712.8
2015-Mar-27 09:14N 54°36' W 000°41'912.9
2015-Mar-27 08:33N 54°39' W 000°55'9 8.9
2015-Mar-27 07:30N 54°36' W 001°10'4 0.3
2015-Mar-26 20:07N 54°39' W 001°08'2 3.7
2015-Mar-26 19:31N 54°40' W 001°04'6 6.4
2015-Mar-26 18:33N 54°39' W 000°53'14 9.5
2015-Mar-26 17:04N 54°33' W 000°31'510.4
2015-Mar-26 16:33N 54°29' W 000°25'1211.6
2015-Mar-26 15:33N 54°21' W 000°11'1211.8
2015-Mar-26 14:33N 54°12' E 000°03'1211.8
2015-Mar-26 13:33N 54°03' E 000°17'1412.0
2015-Mar-26 12:25N 53°54' E 000°33'1211.2
2015-Mar-26 11:20N 53°44' E 000°46'3611.6
2015-Mar-26 08:13N 53°13' E 001°16'913.1
2015-Mar-26 07:33N 53°05' E 001°23'1414.0
2015-Mar-26 06:34N 52°54' E 001°37'1514.9
2015-Mar-26 05:33N 52°44' E 001°56'1414.3
2015-Mar-26 04:33N 52°32' E 002°09'6210.1
2015-Mar-25 22:27N 51°31' E 002°16'910.2
2015-Mar-25 21:33N 51°23' E 002°10'1212.3
2015-Mar-25 20:33N 51°23' E 002°30'5 4.7
2015-Mar-25 19:32N 51°26' E 002°36'0 0.0
2015-Mar-25 18:34N 51°26' E 002°36'0 0.0
2015-Mar-25 17:34N 51°26' E 002°36'0 0.0
2015-Mar-25 16:33N 51°26' E 002°36'0 0.0
2015-Mar-25 15:32N 51°26' E 002°36'0 0.1
2015-Mar-25 14:32N 51°26' E 002°36'0 0.1
2015-Mar-25 13:33N 51°26' E 002°35'0 0.0
2015-Mar-25 12:33N 51°26' E 002°35'0 0.0
2015-Mar-25 11:32N 51°26' E 002°35'0 0.0
2015-Mar-25 10:33N 51°26' E 002°35'0 0.0
2015-Mar-25 09:33N 51°26' E 002°35'0 0.0
2015-Mar-25 08:33N 51°26' E 002°35'0 0.0
2015-Mar-25 07:33N 51°26' E 002°35'0 0.1
2015-Mar-25 06:33N 51°26' E 002°36'0 0.0
2015-Mar-25 05:33N 51°26' E 002°36'0 0.0
2015-Mar-25 04:28N 51°26' E 002°36'0 0.0
2015-Mar-25 03:32N 51°26' E 002°36'0 0.1
2015-Mar-25 02:32N 51°26' E 002°36'0 0.1
2015-Mar-25 01:32N 51°26' E 002°35'0 0.0
2015-Mar-25 00:32N 51°26' E 002°35'0 0.0
2015-Mar-24 23:32N 51°26' E 002°35'0 0.0
2015-Mar-24 22:33N 51°26' E 002°35'0 0.0
2015-Mar-24 21:34N 51°26' E 002°35'0 0.0
2015-Mar-24 20:33N 51°26' E 002°35'0 0.0
2015-Mar-24 19:33N 51°26' E 002°35'0 0.1
2015-Mar-24 18:34N 51°26' E 002°36'0 0.0
2015-Mar-24 17:33N 51°26' E 002°36'0 0.0
2015-Mar-24 16:32N 51°26' E 002°36'0 0.0
2015-Mar-24 15:32N 51°26' E 002°36'0 0.0
2015-Mar-24 14:29N 51°26' E 002°36'0 0.1
2015-Mar-24 13:33N 51°26' E 002°36'0 0.1
2015-Mar-24 12:33N 51°26' E 002°35'0 0.0
2015-Mar-24 11:32N 51°26' E 002°35'0 0.0
2015-Mar-24 10:32N 51°26' E 002°35'0 0.0
2015-Mar-24 09:31N 51°26' E 002°35'0 0.1
2015-Mar-24 08:33N 51°26' E 002°36'0 0.0
2015-Mar-24 07:33N 51°26' E 002°36'0 0.0
2015-Mar-24 06:33N 51°26' E 002°36'0 0.0
2015-Mar-24 05:30N 51°26' E 002°36'0 0.0
2015-Mar-24 04:33N 51°26' E 002°36'0 0.0
2015-Mar-24 03:33N 51°26' E 002°36'0 0.0
2015-Mar-24 02:33N 51°26' E 002°36'0 0.0
2015-Mar-24 01:28N 51°26' E 002°36'0 0.1
2015-Mar-24 00:33N 51°26' E 002°35'0 0.0
2015-Mar-23 23:30N 51°26' E 002°35'0 0.0
2015-Mar-23 22:33N 51°26' E 002°35'0 0.0
2015-Mar-23 21:33N 51°26' E 002°35'0 0.1
2015-Mar-23 20:33N 51°26' E 002°36'0 0.0
2015-Mar-23 19:32N 51°26' E 002°36'0 0.0
2015-Mar-23 18:34N 51°26' E 002°36'0 0.0
2015-Mar-23 17:33N 51°26' E 002°36'0 0.0
2015-Mar-23 16:33N 51°26' E 002°36'0 0.0
2015-Mar-23 15:33N 51°26' E 002°36'0 0.0
2015-Mar-23 14:33N 51°26' E 002°36'0 0.0
2015-Mar-23 13:16N 51°26' E 002°36'0 0.1
2015-Mar-23 12:32N 51°26' E 002°36'0 0.1
2015-Mar-23 11:33N 51°26' E 002°35'0 0.0
2015-Mar-23 10:32N 51°26' E 002°35'0 0.0
2015-Mar-23 09:33N 51°26' E 002°35'0 0.0
2015-Mar-23 08:31N 51°26' E 002°35'0 0.1
2015-Mar-23 07:32N 51°26' E 002°36'0 0.0
2015-Mar-23 06:31N 51°26' E 002°36'0 0.0
2015-Mar-23 05:30N 51°26' E 002°36'0 0.0
2015-Mar-23 04:30N 51°26' E 002°36'0 0.0
2015-Mar-23 03:30N 51°26' E 002°36'0 0.0
2015-Mar-23 02:28N 51°26' E 002°36'0 0.0
2015-Mar-23 01:34N 51°26' E 002°36'0 0.1
2015-Mar-23 00:30N 51°26' E 002°36'0 0.1
2015-Mar-22 23:33N 51°26' E 002°35'0 0.0
2015-Mar-22 22:33N 51°26' E 002°35'0 0.0
2015-Mar-22 21:33N 51°26' E 002°35'0 0.0
2015-Mar-22 20:34N 51°26' E 002°35'0 0.0
2015-Mar-22 17:31N 51°26' E 002°36'0 0.0
2015-Mar-22 12:18N 51°26' E 002°35'0 0.1
2015-Mar-22 11:34N 51°26' E 002°35'0 0.0
2015-Mar-22 10:32N 51°26' E 002°35'0 0.0
2015-Mar-22 09:33N 51°26' E 002°35'0 0.0
2015-Mar-22 08:33N 51°26' E 002°35'0 0.0
2015-Mar-22 07:33N 51°26' E 002°35'0 0.0
2015-Mar-22 06:24N 51°26' E 002°35'0 0.0
2015-Mar-22 05:33N 51°26' E 002°35'0 0.1
2015-Mar-22 04:32N 51°26' E 002°35'5 5.0
2015-Mar-22 03:32N 51°22' E 002°30'1312.1
2015-Mar-22 02:27N 51°15' E 002°13'1112.2
2015-Mar-22 01:33N 51°10' E 001°57'9 9.2
2015-Mar-22 00:34N 51°03' E 001°48'7 6.5
2015-Mar-21 23:29N 51°03' E 001°59'1110.3
2015-Mar-21 22:25N 51°04' E 002°17'3 3.3
2015-Mar-21 21:33N 51°03' E 002°21'  

Dump ship's entire track history